createdAt,value
2023-04-01T00:00:45.716Z,1.85
2023-04-01T00:02:17.486Z,1.67
2023-04-01T00:03:49.372Z,2.05
2023-04-01T00:05:21.309Z,1.30
2023-04-01T00:06:53.118Z,1.60
2023-04-01T00:08:26.111Z,1.35
2023-04-01T00:09:57.645Z,1.13
2023-04-01T00:11:29.271Z,1.35
2023-04-01T00:13:00.956Z,1.70
2023-04-01T00:14:32.586Z,1.33
2023-04-01T00:16:19.797Z,1.00
2023-04-01T00:17:52.462Z,1.00
2023-04-01T00:19:24.071Z,1.75
2023-04-01T00:20:55.788Z,0.82
2023-04-01T00:22:27.925Z,1.58
2023-04-01T00:24:00.204Z,0.70
2023-04-01T00:25:32.681Z,1.20
2023-04-01T00:27:04.912Z,1.00
2023-04-01T00:28:37.225Z,0.90
2023-04-01T00:30:10.018Z,0.70
2023-04-01T00:31:41.733Z,1.08
2023-04-01T00:33:13.517Z,0.90
2023-04-01T00:34:45.613Z,0.93
2023-04-01T00:36:20.233Z,1.02
2023-04-01T00:37:52.000Z,0.80
2023-04-01T00:39:23.644Z,1.50
2023-04-01T00:40:59.340Z,1.67
2023-04-01T00:42:30.938Z,0.85
2023-04-01T00:44:23.798Z,1.00
2023-04-01T00:45:55.498Z,0.80
2023-04-01T00:47:28.455Z,0.93
2023-04-01T00:49:01.921Z,0.85
2023-04-01T00:50:36.052Z,1.05
2023-04-01T00:52:11.300Z,1.50
2023-04-01T00:53:45.612Z,0.80
2023-04-01T00:55:20.241Z,3.45
2023-04-01T00:56:57.455Z,2.20
2023-04-01T00:58:31.950Z,0.98
2023-04-01T01:00:08.344Z,1.10
2023-04-01T01:01:40.298Z,0.88
2023-04-01T01:03:13.605Z,1.55
2023-04-01T01:04:45.388Z,0.80
2023-04-01T01:06:55.032Z,0.90
2023-04-01T01:08:52.626Z,1.38
2023-04-01T01:10:36.172Z,1.23
2023-04-01T01:12:15.021Z,0.70
2023-04-01T01:14:02.239Z,0.95
2023-04-01T01:15:42.372Z,1.60
2023-04-01T01:17:29.231Z,0.65
2023-04-01T01:19:18.925Z,0.80
2023-04-01T01:21:08.893Z,1.70
2023-04-01T01:22:53.241Z,0.70
2023-04-01T01:24:24.874Z,1.08
2023-04-01T01:26:35.475Z,0.90
2023-04-01T01:28:28.878Z,0.60
2023-04-01T01:30:25.356Z,1.00
2023-04-01T01:32:02.551Z,0.82
2023-04-01T01:33:39.823Z,1.08
2023-04-01T01:35:23.375Z,1.60
2023-04-01T01:37:00.169Z,1.27
2023-04-01T01:38:34.866Z,0.80
2023-04-01T01:40:12.650Z,1.20
2023-04-01T01:41:50.307Z,0.63
2023-04-01T01:43:26.453Z,1.05
2023-04-01T01:45:00.746Z,0.80
2023-04-01T01:46:32.986Z,0.68
2023-04-01T01:48:06.601Z,1.58
2023-04-01T01:49:40.566Z,0.75
2023-04-01T01:51:12.299Z,1.33
2023-04-01T01:52:43.918Z,0.85
2023-04-01T01:54:18.534Z,0.60
2023-04-01T01:55:50.190Z,0.82
2023-04-01T01:57:33.905Z,1.25
2023-04-01T01:59:11.849Z,0.60
2023-04-01T02:00:48.144Z,1.77
2023-04-01T02:02:20.865Z,0.65
2023-04-01T02:03:53.845Z,0.88
2023-04-01T02:05:30.268Z,2.15
2023-04-01T02:07:14.698Z,1.30
2023-04-01T02:08:48.052Z,1.55
2023-04-01T02:10:23.476Z,1.70
2023-04-01T02:12:10.817Z,0.75
2023-04-01T02:13:53.538Z,0.93
2023-04-01T02:15:28.194Z,0.75
2023-04-01T02:17:08.398Z,0.60
2023-04-01T02:18:42.118Z,0.70
2023-04-01T02:20:18.345Z,1.48
2023-04-01T02:21:57.824Z,0.80
2023-04-01T02:23:29.955Z,0.47
2023-04-01T02:25:10.640Z,0.47
2023-04-01T02:26:42.685Z,0.70
2023-04-01T02:28:17.502Z,0.60
2023-04-01T02:29:49.261Z,1.30
2023-04-01T02:31:21.708Z,0.73
2023-04-01T02:32:54.313Z,0.90
2023-04-01T02:34:27.231Z,1.52
2023-04-01T02:35:59.279Z,0.80
2023-04-01T02:37:32.303Z,0.57
2023-04-01T02:39:06.130Z,0.85
2023-04-01T02:40:46.835Z,0.55
2023-04-01T02:42:18.351Z,1.50
2023-04-01T02:43:50.065Z,1.52
2023-04-01T02:45:22.110Z,0.65
2023-04-01T02:46:54.046Z,0.75
2023-04-01T02:48:26.983Z,0.57
2023-04-01T02:50:01.206Z,0.70
2023-04-01T02:51:33.565Z,0.70
2023-04-01T02:53:07.144Z,0.85
2023-04-01T02:54:39.581Z,0.63
2023-04-01T02:56:11.422Z,0.57
2023-04-01T02:57:42.930Z,0.80
2023-04-01T02:59:14.562Z,0.82
2023-04-01T03:00:46.186Z,0.52
2023-04-01T03:02:18.319Z,0.43
2023-04-01T03:03:50.072Z,0.75
2023-04-01T03:05:22.174Z,0.50
2023-04-01T03:06:53.745Z,0.43
2023-04-01T03:08:25.468Z,0.60
2023-04-01T03:09:57.001Z,0.68
2023-04-01T03:11:28.708Z,1.05
2023-04-01T03:13:00.315Z,0.98
2023-04-01T03:14:31.980Z,0.73
2023-04-01T03:16:04.048Z,0.70
2023-04-01T03:17:35.893Z,0.60
2023-04-01T03:19:07.473Z,0.80
2023-04-01T03:20:39.260Z,1.05
2023-04-01T03:22:13.852Z,0.60
2023-04-01T03:23:45.539Z,0.57
2023-04-01T03:25:17.212Z,0.63
2023-04-01T03:26:49.523Z,0.68
2023-04-01T03:28:21.135Z,1.70
2023-04-01T03:29:52.773Z,0.70
2023-04-01T03:31:24.998Z,0.93
2023-04-01T03:33:01.550Z,0.80
2023-04-01T03:34:33.378Z,1.13
2023-04-01T03:36:07.592Z,1.02
2023-04-01T03:37:39.354Z,0.80
2023-04-01T03:39:11.093Z,0.93
2023-04-01T03:40:46.540Z,0.82
2023-04-01T03:42:18.927Z,0.52
2023-04-01T03:43:50.624Z,0.82
2023-04-01T03:45:22.221Z,1.52
2023-04-01T03:46:54.464Z,0.50
2023-04-01T03:48:26.971Z,0.70
2023-04-01T03:49:58.947Z,0.77
2023-04-01T03:51:31.501Z,0.55
2023-04-01T03:53:03.413Z,0.90
2023-04-01T03:54:35.247Z,0.93
2023-04-01T03:56:08.575Z,0.85
2023-04-01T03:57:41.338Z,0.73
2023-04-01T03:59:21.452Z,0.65
2023-04-01T04:00:53.740Z,0.82
2023-04-01T04:02:25.510Z,0.52
2023-04-01T04:03:57.374Z,0.60
2023-04-01T04:05:29.055Z,0.63
2023-04-01T04:07:00.728Z,0.80
2023-04-01T04:08:34.660Z,0.80
2023-04-01T04:10:06.981Z,0.70
2023-04-01T04:11:38.628Z,1.05
2023-04-01T04:13:10.719Z,0.60
2023-04-01T04:14:48.422Z,0.77
2023-04-01T04:16:20.286Z,0.77
2023-04-01T04:17:58.164Z,0.98
2023-04-01T04:19:34.819Z,0.68
2023-04-01T04:21:07.126Z,0.85
2023-04-01T04:22:38.677Z,0.57
2023-04-01T04:24:12.228Z,0.57
2023-04-01T04:26:14.893Z,0.73
2023-04-01T04:27:47.536Z,0.70
2023-04-01T04:29:20.326Z,0.95
2023-04-01T04:30:52.171Z,0.80
2023-04-01T04:32:23.686Z,1.10
2023-04-01T04:33:55.787Z,0.70
2023-04-01T04:35:27.476Z,0.85
2023-04-01T04:36:59.391Z,0.75
2023-04-01T04:38:35.364Z,0.70
2023-04-01T04:40:07.733Z,1.08
2023-04-01T04:41:39.345Z,0.68
2023-04-01T04:43:15.239Z,0.95
2023-04-01T04:44:47.635Z,1.20
2023-04-01T04:46:20.632Z,0.95
2023-04-01T04:47:55.345Z,0.70
2023-04-01T04:49:27.042Z,1.83
2023-04-01T04:50:58.826Z,1.92
2023-04-01T04:52:30.808Z,0.82
2023-04-01T04:54:04.749Z,0.63
2023-04-01T04:55:53.572Z,0.85
2023-04-01T04:57:34.100Z,0.95
2023-04-01T04:59:06.317Z,0.93
2023-04-01T05:00:47.865Z,1.90
2023-04-01T05:02:26.815Z,0.98
2023-04-01T05:03:58.478Z,0.85
2023-04-01T05:05:30.320Z,1.45
2023-04-01T05:07:02.324Z,1.00
2023-04-01T05:08:36.866Z,1.00
2023-04-01T05:10:08.847Z,0.98
2023-04-01T05:11:41.201Z,0.90
2023-04-01T05:13:12.863Z,0.75
2023-04-01T05:14:45.671Z,0.93
2023-04-01T05:16:19.421Z,1.13
2023-04-01T05:17:51.287Z,0.90
2023-04-01T05:19:22.929Z,1.33
2023-04-01T05:20:55.803Z,1.20
2023-04-01T05:22:28.261Z,0.88
2023-04-01T05:23:59.900Z,0.82
2023-04-01T05:25:32.431Z,0.80
2023-04-01T05:27:05.886Z,1.10
2023-04-01T05:28:37.902Z,0.77
2023-04-01T05:30:10.131Z,1.55
2023-04-01T05:32:01.810Z,1.00
2023-04-01T05:33:34.716Z,0.70
2023-04-01T05:35:07.204Z,0.70
2023-04-01T05:36:39.328Z,0.82
2023-04-01T05:38:13.478Z,0.77
2023-04-01T05:39:45.290Z,0.80
2023-04-01T05:41:17.480Z,1.77
2023-04-01T05:42:51.177Z,0.65
2023-04-01T05:44:23.585Z,0.93
2023-04-01T05:46:04.449Z,0.82
2023-04-01T05:47:54.847Z,0.80
2023-04-01T05:49:28.416Z,0.80
2023-04-01T05:51:00.807Z,0.70
2023-04-01T05:52:33.998Z,0.93
2023-04-01T05:54:06.897Z,0.93
2023-04-01T05:55:38.922Z,1.60
2023-04-01T05:57:10.853Z,1.13
2023-04-01T05:58:51.226Z,0.52
2023-04-01T06:00:23.082Z,0.70
2023-04-01T06:01:55.510Z,0.80
2023-04-01T06:03:27.766Z,0.82
2023-04-01T06:05:14.462Z,0.68
2023-04-01T06:06:46.525Z,0.95
2023-04-01T06:08:20.538Z,0.80
2023-04-01T06:09:52.943Z,1.33
2023-04-01T06:12:10.910Z,0.80
2023-04-01T06:14:07.029Z,0.70
2023-04-01T06:16:10.564Z,0.73
2023-04-01T06:18:11.234Z,1.08
2023-04-01T06:20:18.033Z,1.17
2023-04-01T06:22:08.539Z,1.02
2023-04-01T06:24:07.184Z,0.70
2023-04-01T06:25:47.972Z,1.10
2023-04-01T06:27:50.575Z,0.98
2023-04-01T06:29:43.715Z,0.95
2023-04-01T06:31:40.076Z,0.65
2023-04-01T06:33:31.351Z,1.10
2023-04-01T06:35:03.034Z,1.23
2023-04-01T06:36:43.814Z,1.30
2023-04-01T06:38:45.867Z,1.40
2023-04-01T06:40:39.463Z,1.13
2023-04-01T06:42:31.936Z,0.93
2023-04-01T06:44:14.373Z,0.90
2023-04-01T06:46:21.461Z,1.30
2023-04-01T06:48:45.421Z,1.13
2023-04-01T06:51:18.539Z,0.95
2023-04-01T06:53:26.003Z,0.85
2023-04-01T06:55:22.908Z,0.82
2023-04-01T06:57:30.540Z,0.80
2023-04-01T06:59:05.753Z,1.00
2023-04-01T07:00:41.755Z,0.75
2023-04-01T07:02:25.596Z,1.20
2023-04-01T07:04:02.980Z,0.80
2023-04-01T07:05:36.937Z,0.55
2023-04-01T07:07:20.573Z,1.08
2023-04-01T07:09:06.522Z,0.63
2023-04-01T07:11:03.242Z,0.77
2023-04-01T07:12:57.435Z,0.60
2023-04-01T07:14:52.108Z,0.90
2023-04-01T07:16:29.794Z,0.80
2023-04-01T07:18:29.670Z,1.08
2023-04-01T07:20:10.419Z,1.00
2023-04-01T07:21:49.914Z,0.90
2023-04-01T07:23:43.381Z,1.00
2023-04-01T07:25:38.856Z,1.10
2023-04-01T07:27:33.621Z,0.70
2023-04-01T07:29:11.506Z,0.95
2023-04-01T07:31:01.773Z,1.15
2023-04-01T07:32:59.172Z,1.10
2023-04-01T07:34:59.458Z,1.52
2023-04-01T07:36:39.857Z,1.02
2023-04-01T07:38:41.516Z,1.05
2023-04-01T07:40:52.338Z,0.90
2023-04-01T07:42:38.470Z,1.00
2023-04-01T07:44:40.345Z,0.88
2023-04-01T07:46:17.598Z,0.95
2023-04-01T07:48:16.607Z,0.98
2023-04-01T07:50:22.157Z,1.00
2023-04-01T07:51:56.688Z,1.27
2023-04-01T07:54:14.876Z,1.40
2023-04-01T07:55:47.843Z,1.10
2023-04-01T07:57:28.543Z,1.00
2023-04-01T07:59:00.867Z,1.75
2023-04-01T08:01:02.776Z,0.95
2023-04-01T08:02:53.782Z,0.80
2023-04-01T08:04:57.435Z,1.35
2023-04-01T08:06:52.082Z,1.17
2023-04-01T08:08:35.299Z,0.70
2023-04-01T08:10:51.465Z,0.90
2023-04-01T08:12:58.610Z,1.67
2023-04-01T08:15:06.533Z,1.30
2023-04-01T08:17:18.891Z,1.42
2023-04-01T08:18:56.273Z,1.70
2023-04-01T08:20:51.448Z,1.13
2023-04-01T08:22:30.292Z,0.90
2023-04-01T08:24:22.230Z,0.90
2023-04-01T08:26:18.890Z,1.50
2023-04-01T08:28:20.305Z,1.70
2023-04-01T08:29:59.776Z,1.20
2023-04-01T08:31:59.295Z,1.25
2023-04-01T08:33:33.198Z,1.25
2023-04-01T08:35:34.896Z,1.52
2023-04-01T08:37:15.115Z,0.93
2023-04-01T08:38:50.005Z,1.20
2023-04-01T08:40:42.047Z,0.80
2023-04-01T08:42:13.693Z,1.00
2023-04-01T08:44:12.987Z,0.93
2023-04-01T08:46:04.396Z,0.80
2023-04-01T08:47:36.214Z,1.08
2023-04-01T08:49:13.813Z,1.15
2023-04-01T08:51:08.767Z,0.98
2023-04-01T08:53:16.232Z,1.10
2023-04-01T08:55:04.024Z,0.90
2023-04-01T08:57:14.206Z,1.20
2023-04-01T08:59:18.359Z,1.00
2023-04-01T09:01:12.343Z,1.15
2023-04-01T09:02:59.108Z,0.80
2023-04-01T09:04:56.647Z,0.73
2023-04-01T09:06:41.422Z,0.88
2023-04-01T09:08:25.425Z,0.70
2023-04-01T09:10:34.746Z,1.33
2023-04-01T09:12:37.068Z,0.90
2023-04-01T09:14:27.466Z,0.82
2023-04-01T09:16:40.442Z,1.13
2023-04-01T09:18:25.078Z,0.93
2023-04-01T09:20:31.770Z,0.55
2023-04-01T09:22:12.939Z,1.20
2023-04-01T09:23:44.544Z,1.88
2023-04-01T09:25:42.791Z,1.50
2023-04-01T09:27:42.027Z,0.90
2023-04-01T09:29:41.051Z,0.95
2023-04-01T09:31:21.536Z,0.90
2023-04-01T09:33:31.553Z,1.10
2023-04-01T09:35:41.904Z,1.77
2023-04-01T09:37:22.534Z,1.60
2023-04-01T09:38:59.968Z,0.73
2023-04-01T09:40:32.696Z,1.20
2023-04-01T09:42:13.477Z,2.90
2023-04-01T09:44:04.853Z,1.10
2023-04-01T09:46:05.109Z,0.90
2023-04-01T09:47:52.754Z,0.80
2023-04-01T09:49:43.266Z,1.02
2023-04-01T09:51:20.935Z,1.35
2023-04-01T09:53:20.071Z,0.65
2023-04-01T09:55:09.689Z,1.10
2023-04-01T09:56:41.406Z,0.88
2023-04-01T09:58:34.538Z,1.17
2023-04-01T10:01:13.399Z,1.10
2023-04-01T10:02:53.860Z,1.77
2023-04-01T10:04:51.259Z,1.10
2023-04-01T10:07:14.568Z,1.40
2023-04-01T10:09:07.751Z,1.08
2023-04-01T10:10:57.834Z,0.95
2023-04-01T10:12:40.830Z,1.00
2023-04-01T10:14:24.507Z,0.90
2023-04-01T10:16:14.989Z,0.90
2023-04-01T10:17:55.783Z,1.10
2023-04-01T10:20:06.944Z,1.23
2023-04-01T10:22:05.471Z,1.45
2023-04-01T10:23:56.848Z,1.15
2023-04-01T10:25:52.850Z,1.10
2023-04-01T10:27:53.869Z,0.93
2023-04-01T10:29:43.930Z,0.98
2023-04-01T10:31:36.978Z,0.98
2023-04-01T10:33:17.576Z,1.02
2023-04-01T10:35:27.742Z,1.50
2023-04-01T10:37:09.557Z,1.73
2023-04-01T10:39:12.313Z,0.88
2023-04-01T10:41:13.294Z,1.23
2023-04-01T10:44:56.148Z,1.38
2023-04-01T10:47:26.788Z,1.17
2023-04-01T10:49:26.214Z,0.90
2023-04-01T10:51:19.515Z,1.73
2023-04-01T10:53:01.467Z,2.05
2023-04-01T10:55:20.631Z,1.30
2023-04-01T10:57:57.444Z,1.17
2023-04-01T11:00:05.159Z,1.08
2023-04-01T11:02:33.882Z,1.40
2023-04-01T11:04:24.213Z,1.05
2023-04-01T11:06:38.665Z,1.30
2023-04-01T11:08:19.573Z,1.33
2023-04-01T11:10:09.617Z,1.95
2023-04-01T11:11:56.916Z,1.95
2023-04-01T11:13:34.566Z,0.65
2023-04-01T11:15:11.839Z,0.85
2023-04-01T11:16:58.745Z,1.60
2023-04-01T11:18:57.785Z,1.02
2023-04-01T11:20:57.785Z,1.50
2023-04-01T11:22:49.141Z,1.00
2023-04-01T11:24:47.643Z,0.80
2023-04-01T11:27:09.177Z,0.73
2023-04-01T11:29:11.386Z,0.77
2023-04-01T11:30:59.741Z,0.65
2023-04-01T11:32:43.439Z,0.68
2023-04-01T11:34:20.046Z,0.60
2023-04-01T11:35:54.643Z,0.98
2023-04-01T11:37:56.194Z,1.42
2023-04-01T11:40:00.051Z,1.10
2023-04-01T11:42:16.274Z,1.52
2023-04-01T11:44:21.401Z,0.90
2023-04-01T11:46:16.531Z,0.93
2023-04-01T11:48:08.279Z,1.65
2023-04-01T11:50:16.279Z,0.60
2023-04-01T11:52:17.700Z,0.95
2023-04-01T11:54:01.631Z,1.02
2023-04-01T11:55:39.926Z,0.75
2023-04-01T11:57:41.877Z,1.10
2023-04-01T11:59:28.586Z,1.38
2023-04-01T12:01:03.083Z,1.20
2023-04-01T12:02:52.853Z,0.70
2023-04-01T12:05:02.197Z,0.95
2023-04-01T12:06:54.899Z,0.88
2023-04-01T12:08:38.041Z,0.70
2023-04-01T12:10:18.977Z,0.70
2023-04-01T12:12:12.357Z,1.50
2023-04-01T12:13:46.704Z,0.93
2023-04-01T12:15:38.564Z,1.48
2023-04-01T12:17:13.114Z,1.13
2023-04-01T12:18:52.014Z,1.45
2023-04-01T12:20:46.142Z,1.35
2023-04-01T12:22:42.215Z,2.35
2023-04-01T12:24:38.597Z,1.10
2023-04-01T12:26:22.324Z,1.65
2023-04-01T12:28:24.112Z,1.83
2023-04-01T12:30:01.725Z,1.08
2023-04-01T12:32:10.767Z,0.88
2023-04-01T12:34:01.684Z,1.50
2023-04-01T12:35:51.794Z,1.75
2023-04-01T12:37:48.359Z,2.28
2023-04-01T12:39:53.878Z,0.80
2023-04-01T12:41:55.603Z,1.02
2023-04-01T12:43:40.870Z,2.17
2023-04-01T12:45:32.162Z,1.17
2023-04-01T12:47:17.829Z,1.73
2023-04-01T12:49:11.020Z,1.63
2023-04-01T12:51:15.639Z,1.20
2023-04-01T12:53:07.774Z,0.73
2023-04-01T12:54:51.123Z,1.17
2023-04-01T12:56:50.622Z,2.13
2023-04-01T12:58:58.064Z,0.70
2023-04-01T13:00:43.349Z,1.33
2023-04-01T13:02:40.738Z,1.42
2023-04-01T13:04:49.879Z,1.48
2023-04-01T13:07:07.185Z,1.73
2023-04-01T13:08:57.080Z,0.75
2023-04-01T13:10:39.592Z,0.73
2023-04-01T13:12:37.056Z,1.40
2023-04-01T13:14:36.651Z,0.70
2023-04-01T13:16:30.702Z,1.45
2023-04-01T13:18:21.111Z,1.40
2023-04-01T13:20:11.019Z,1.63
2023-04-01T13:22:01.211Z,0.68
2023-04-01T13:23:51.830Z,1.63
2023-04-01T13:25:42.922Z,1.38
2023-04-01T13:27:35.629Z,0.75
2023-04-01T13:29:24.497Z,0.80
2023-04-01T13:31:08.599Z,0.80
2023-04-01T13:33:06.116Z,1.20
2023-04-01T13:34:50.634Z,1.50
2023-04-01T13:36:28.337Z,1.60
2023-04-01T13:38:36.913Z,1.30
2023-04-01T13:40:55.690Z,1.27
2023-04-01T13:42:42.412Z,1.95
2023-04-01T13:44:13.972Z,1.63
2023-04-01T13:46:03.897Z,2.03
2023-04-01T13:47:57.330Z,1.98
2023-04-01T13:50:13.800Z,1.85
2023-04-01T13:52:16.398Z,1.80
2023-04-01T13:54:26.968Z,1.70
2023-04-01T13:56:01.671Z,0.70
2023-04-01T13:57:44.333Z,1.23
2023-04-01T13:59:18.832Z,0.75
2023-04-01T14:01:26.571Z,0.90
2023-04-01T14:03:54.976Z,0.82
2023-04-01T14:05:39.885Z,0.85
2023-04-01T14:07:14.553Z,1.95
2023-04-01T14:09:04.659Z,0.95
2023-04-01T14:10:36.391Z,1.30
2023-04-01T14:12:19.846Z,0.90
2023-04-01T14:14:17.453Z,1.13
2023-04-01T14:15:55.006Z,0.93
2023-04-01T14:17:32.747Z,1.90
2023-04-01T14:19:08.393Z,0.70
2023-04-01T14:21:08.916Z,0.70
2023-04-01T14:23:05.879Z,0.60
2023-04-01T14:24:59.436Z,0.95
2023-04-01T14:26:49.708Z,0.82
2023-04-01T14:28:45.852Z,1.42
2023-04-01T14:30:46.611Z,2.38
2023-04-01T14:32:30.309Z,1.65
2023-04-01T14:34:30.966Z,0.70
2023-04-01T14:36:23.987Z,2.20
2023-04-01T14:38:07.576Z,2.05
2023-04-01T14:39:57.365Z,0.80
2023-04-01T14:41:50.048Z,0.73
2023-04-01T14:43:44.437Z,0.77
2023-04-01T14:45:43.654Z,0.93
2023-04-01T14:47:21.394Z,0.82
2023-04-01T14:49:23.955Z,1.05
2023-04-01T14:50:58.803Z,0.68
2023-04-01T14:52:36.896Z,1.20
2023-04-01T14:54:35.738Z,1.67
2023-04-01T14:56:07.447Z,2.13
2023-04-01T14:57:39.080Z,1.55
2023-04-01T14:59:28.047Z,1.60
2023-04-01T15:01:17.960Z,1.60
2023-04-01T15:03:19.277Z,1.33
2023-04-01T15:04:57.042Z,1.10
2023-04-01T15:06:42.734Z,2.05
2023-04-01T15:08:23.629Z,1.00
2023-04-01T15:10:22.147Z,1.83
2023-04-01T15:12:14.074Z,1.67
2023-04-01T15:14:02.818Z,1.60
2023-04-01T15:15:40.773Z,1.10
2023-04-01T15:17:39.888Z,1.00
2023-04-01T15:19:33.252Z,0.90
2023-04-01T15:21:19.172Z,1.05
2023-04-01T15:23:15.938Z,0.70
2023-04-01T15:25:00.181Z,1.60
2023-04-01T15:26:48.440Z,1.10
2023-04-01T15:28:20.109Z,0.95
2023-04-01T15:30:10.499Z,0.90
2023-04-01T15:32:03.768Z,1.08
2023-04-01T15:33:53.892Z,0.90
2023-04-01T15:35:53.296Z,1.80
2023-04-01T15:37:37.139Z,0.98
2023-04-01T15:39:08.737Z,1.85
2023-04-01T15:40:46.182Z,1.10
2023-04-01T15:42:32.996Z,1.60
2023-04-01T15:44:04.695Z,1.00
2023-04-01T15:45:42.268Z,1.25
2023-04-01T15:47:26.025Z,2.22
2023-04-01T15:49:29.994Z,2.00
2023-04-01T15:51:23.219Z,1.90
2023-04-01T15:53:08.854Z,1.10
2023-04-01T15:55:04.691Z,1.85
2023-04-01T15:56:57.517Z,2.00
2023-04-01T15:58:47.563Z,2.17
2023-04-01T16:00:27.700Z,4.80
2023-04-01T16:02:14.195Z,1.33
2023-04-01T16:03:55.063Z,2.15
2023-04-01T16:05:38.541Z,1.65
2023-04-01T16:07:25.534Z,1.70
2023-04-01T16:09:11.859Z,1.88
2023-04-01T16:11:05.421Z,1.85
2023-04-01T16:12:46.334Z,1.80
2023-04-01T16:14:39.156Z,1.50
2023-04-01T16:16:32.323Z,0.90
2023-04-01T16:18:19.703Z,1.98
2023-04-01T16:20:14.300Z,1.73
2023-04-01T16:22:02.662Z,2.83
2023-04-01T16:23:49.616Z,2.28
2023-04-01T16:25:32.641Z,2.33
2023-04-01T16:27:10.159Z,2.38
2023-04-01T16:28:55.562Z,2.03
2023-04-01T16:30:36.066Z,2.10
2023-04-01T16:32:20.147Z,1.75
2023-04-01T16:34:19.565Z,1.45
2023-04-01T16:36:01.924Z,2.03
2023-04-01T16:37:50.167Z,1.70
2023-04-01T16:39:44.609Z,1.70
2023-04-01T16:41:21.681Z,3.13
2023-04-01T16:43:12.712Z,2.30
2023-04-01T16:45:08.398Z,2.58
2023-04-01T16:46:47.393Z,2.03
2023-04-01T16:48:26.913Z,2.25
2023-04-01T16:50:47.788Z,1.77
2023-04-01T16:52:31.682Z,2.28
2023-04-01T16:54:11.820Z,2.42
2023-04-01T16:55:54.105Z,1.40
2023-04-01T16:57:31.599Z,2.45
2023-04-01T16:59:23.248Z,2.58
2023-04-01T17:01:08.739Z,1.08
2023-04-01T17:02:51.151Z,2.83
2023-04-01T17:04:44.352Z,2.50
2023-04-01T17:06:46.765Z,1.30
2023-04-01T17:08:29.689Z,1.38
2023-04-01T17:10:25.823Z,1.30
2023-04-01T17:12:16.225Z,1.00
2023-04-01T17:13:51.057Z,1.98
2023-04-01T17:15:43.016Z,2.40
2023-04-01T17:17:42.168Z,2.50
2023-04-01T17:19:35.818Z,1.25
2023-04-01T17:21:30.658Z,1.67
2023-04-01T17:24:58.819Z,2.35
2023-04-01T17:26:43.328Z,1.15
2023-04-01T17:28:50.788Z,1.90
2023-04-01T17:30:44.026Z,1.92
2023-04-01T17:32:40.944Z,2.28
2023-04-01T17:34:22.183Z,1.80
2023-04-01T17:36:12.147Z,1.63
2023-04-01T17:38:18.282Z,1.45
2023-04-01T17:40:21.275Z,3.15
2023-04-01T17:42:07.344Z,2.55
2023-04-01T17:43:46.921Z,2.55
2023-04-01T17:45:21.690Z,2.83
2023-04-01T17:47:27.450Z,2.30
2023-04-01T17:49:40.994Z,2.40
2023-04-01T17:51:24.152Z,2.22
2023-04-01T17:53:00.681Z,1.92
2023-04-01T17:54:47.249Z,2.50
2023-04-01T17:56:45.209Z,3.17
2023-04-01T17:58:19.955Z,2.90
2023-04-01T18:00:04.497Z,3.47
2023-04-01T18:01:57.326Z,2.38
2023-04-01T18:04:01.639Z,1.70
2023-04-01T18:05:35.820Z,2.45
2023-04-01T18:07:23.598Z,1.80
2023-04-01T18:09:14.930Z,2.03
2023-04-01T18:10:52.408Z,2.63
2023-04-01T18:13:17.720Z,2.03
2023-04-01T18:14:58.544Z,2.15
2023-04-01T18:16:39.263Z,2.15
2023-04-01T18:18:31.860Z,2.40
2023-04-01T18:20:40.458Z,2.45
2023-04-01T18:22:41.968Z,3.05
2023-04-01T18:24:19.782Z,2.83
2023-04-01T18:26:02.789Z,3.03
2023-04-01T18:27:53.076Z,3.00
2023-04-01T18:29:41.288Z,3.38
2023-04-01T18:31:20.129Z,1.98
2023-04-01T18:33:13.325Z,2.83
2023-04-01T18:34:57.087Z,1.75
2023-04-01T18:36:53.075Z,2.63
2023-04-01T18:38:41.326Z,1.85
2023-04-01T18:40:25.255Z,1.42
2023-04-01T18:42:34.416Z,1.50
2023-04-01T18:44:32.451Z,2.60
2023-04-01T18:46:19.271Z,2.28
2023-04-01T18:47:59.946Z,2.13
2023-04-01T18:49:44.383Z,2.03
2023-04-01T18:51:23.890Z,2.42
2023-04-01T18:53:23.060Z,2.60
2023-04-01T18:55:03.771Z,3.30
2023-04-01T18:56:44.894Z,2.47
2023-04-01T18:58:51.643Z,1.88
2023-04-01T19:00:34.022Z,1.65
2023-04-01T19:02:08.699Z,2.70
2023-04-01T19:03:59.203Z,2.90
2023-04-01T19:05:37.741Z,2.60
2023-04-01T19:07:38.113Z,2.88
2023-04-01T19:09:21.168Z,2.05
2023-04-01T19:11:11.805Z,1.95
2023-04-01T19:13:23.743Z,1.42
2023-04-01T19:15:06.584Z,2.33
2023-04-01T19:17:06.017Z,3.55
2023-04-01T19:18:37.566Z,3.28
2023-04-01T19:20:22.460Z,3.10
2023-04-01T19:21:58.109Z,3.13
2023-04-01T19:23:56.034Z,2.70
2023-04-01T19:25:44.117Z,1.65
2023-04-01T19:27:38.671Z,2.97
2023-04-01T19:29:36.050Z,2.53
2023-04-01T19:31:37.543Z,2.45
2023-04-01T19:33:42.928Z,1.85
2023-04-01T19:35:32.830Z,1.30
2023-04-01T19:37:42.048Z,2.47
2023-04-01T19:39:48.118Z,4.13
2023-04-01T19:41:25.317Z,4.55
2023-04-01T19:43:19.924Z,3.17
2023-04-01T19:45:39.540Z,3.25
2023-04-01T19:47:17.176Z,5.63
2023-04-01T19:49:07.268Z,3.60
2023-04-01T19:50:41.656Z,2.83
2023-04-01T19:52:27.616Z,2.53
2023-04-01T19:54:18.079Z,3.38
2023-04-01T19:55:55.186Z,2.97
2023-04-01T19:57:29.886Z,2.42
2023-04-01T19:59:30.671Z,2.80
2023-04-01T20:01:04.919Z,1.83
2023-04-01T20:02:36.619Z,1.65
2023-04-01T20:04:18.253Z,2.17
2023-04-01T20:06:13.107Z,2.78
2023-04-01T20:08:09.857Z,2.53
2023-04-01T20:09:53.356Z,2.67
2023-04-01T20:11:31.296Z,1.70
2023-04-01T20:13:22.520Z,2.75
2023-04-01T20:14:59.725Z,2.15
2023-04-01T20:17:22.381Z,2.95
2023-04-01T20:19:00.693Z,4.13
2023-04-01T20:20:33.084Z,4.75
2023-04-01T20:22:19.275Z,6.00
2023-04-01T20:24:09.242Z,5.95
2023-04-01T20:25:58.311Z,4.57
2023-04-01T20:27:47.625Z,4.00
2023-04-01T20:29:40.660Z,3.80
2023-04-01T20:31:29.212Z,3.35
2023-04-01T20:33:19.506Z,2.83
2023-04-01T20:35:41.975Z,3.10
2023-04-01T20:37:46.021Z,4.63
2023-04-01T20:39:20.791Z,2.85
2023-04-01T20:41:03.697Z,2.97
2023-04-01T20:42:55.327Z,4.00
2023-04-01T20:44:53.059Z,5.15
2023-04-01T20:46:39.961Z,7.22
2023-04-01T20:48:35.441Z,7.10
2023-04-01T20:50:25.226Z,8.73
2023-04-01T20:52:11.923Z,7.30
2023-04-01T20:54:06.553Z,10.20
2023-04-01T20:55:47.475Z,23.45
2023-04-01T20:57:28.763Z,17.70
2023-04-01T20:59:12.575Z,16.45
2023-04-01T21:00:49.932Z,13.90
2023-04-01T21:02:42.727Z,12.13
2023-04-01T21:04:27.197Z,6.75
2023-04-01T21:06:25.026Z,6.15
2023-04-01T21:08:21.686Z,8.48
2023-04-01T21:10:02.312Z,6.75
2023-04-01T21:11:42.894Z,6.50
2023-04-01T21:13:14.403Z,5.10
2023-04-01T21:15:04.565Z,4.38
2023-04-01T21:16:42.702Z,4.18
2023-04-01T21:18:32.628Z,4.32
2023-04-01T21:20:29.215Z,3.90
2023-04-01T21:22:27.466Z,3.50
2023-04-01T21:24:10.358Z,3.58
2023-04-01T21:26:11.174Z,3.78
2023-04-01T21:28:16.784Z,5.47
2023-04-01T21:30:20.081Z,5.68
2023-04-01T21:32:05.899Z,3.30
2023-04-01T21:33:40.457Z,5.43
2023-04-01T21:35:33.582Z,2.85
2023-04-01T21:37:36.276Z,2.25
2023-04-01T21:39:22.784Z,2.53
2023-04-01T21:41:24.177Z,3.17
2023-04-01T21:45:02.348Z,3.58
2023-04-01T21:47:11.272Z,4.22
2023-04-01T21:48:54.568Z,3.08
2023-04-01T21:50:31.870Z,3.05
2023-04-01T21:52:38.725Z,3.72
2023-04-01T21:54:58.543Z,4.07
2023-04-01T21:57:04.500Z,3.72
2023-04-01T21:58:54.799Z,3.13
2023-04-01T22:00:55.046Z,4.28
2023-04-01T22:02:57.640Z,4.22
2023-04-01T22:04:29.222Z,3.83
2023-04-01T22:06:24.117Z,4.18
2023-04-01T22:08:04.646Z,3.13
2023-04-01T22:09:51.502Z,2.42
2023-04-01T22:11:45.957Z,2.47
2023-04-01T22:13:20.169Z,2.92
2023-04-01T22:15:19.320Z,2.63
2023-04-01T22:17:06.671Z,2.90
2023-04-01T22:18:50.307Z,3.72
2023-04-01T22:20:38.018Z,3.40
2023-04-01T22:22:48.685Z,2.92
2023-04-01T22:24:44.192Z,3.47
2023-04-01T22:26:24.303Z,2.38
2023-04-01T22:28:07.699Z,2.35
2023-04-01T22:30:01.458Z,2.70
2023-04-01T22:32:14.699Z,2.30
2023-04-01T22:34:11.235Z,2.75
2023-04-01T22:35:48.691Z,2.75
2023-04-01T22:37:55.576Z,1.88
2023-04-01T22:39:35.514Z,1.60
2023-04-01T22:41:34.748Z,2.92
2023-04-01T22:43:11.686Z,1.27
2023-04-01T22:45:23.902Z,1.52
2023-04-01T22:47:01.549Z,1.92
2023-04-01T22:48:55.073Z,2.92
2023-04-01T22:50:33.392Z,1.48
2023-04-01T22:52:15.190Z,2.15
2023-04-01T22:54:13.412Z,2.20
2023-04-01T22:55:53.603Z,1.27
2023-04-01T22:57:31.741Z,3.53
2023-04-01T22:59:41.181Z,2.83
2023-04-01T23:01:17.351Z,1.92
2023-04-01T23:03:07.937Z,1.15
2023-04-01T23:04:43.265Z,1.23
2023-04-01T23:06:24.827Z,1.23
2023-04-01T23:08:14.185Z,1.08
2023-04-01T23:09:45.992Z,1.17
2023-04-01T23:11:42.037Z,1.52
2023-04-01T23:13:20.607Z,1.20
2023-04-01T23:14:55.708Z,1.30
2023-04-01T23:16:38.315Z,1.15
2023-04-01T23:18:48.475Z,2.88
2023-04-01T23:20:44.538Z,1.92
2023-04-01T23:22:22.096Z,1.15
2023-04-01T23:24:05.954Z,1.33
2023-04-01T23:26:03.558Z,1.20
2023-04-01T23:27:45.159Z,1.33
2023-04-01T23:29:19.094Z,1.10
2023-04-01T23:30:51.496Z,1.20
2023-04-01T23:32:27.433Z,0.98
2023-04-01T23:36:06.128Z,0.90
2023-04-01T23:37:38.174Z,1.10
2023-04-01T23:39:32.961Z,1.05
2023-04-01T23:41:07.106Z,1.30
2023-04-01T23:42:42.771Z,1.50